createdAt,value
2023-05-06T00:02:19.914Z,92857.53
2023-05-06T00:04:46.418Z,92857.25
2023-05-06T00:07:13.009Z,92856.19
2023-05-06T00:09:39.424Z,92856.97
2023-05-06T00:12:05.892Z,92864.91
2023-05-06T00:14:32.317Z,92859.66
2023-05-06T00:16:58.773Z,92854.38
2023-05-06T00:19:25.188Z,92856.22
2023-05-06T00:21:51.628Z,92859.63
2023-05-06T00:24:18.082Z,92864.84
2023-05-06T00:26:44.496Z,92855.88
2023-05-06T00:29:10.889Z,92856.16
2023-05-06T00:31:37.385Z,92855.66
2023-05-06T00:34:03.985Z,92847.22
2023-05-06T00:36:31.561Z,92849.84
2023-05-06T00:38:58.028Z,92855.88
2023-05-06T00:41:24.512Z,92855.66
2023-05-06T00:43:52.287Z,92846.97
2023-05-06T00:46:18.851Z,92859.66
2023-05-06T00:48:45.444Z,92867.03
2023-05-06T00:51:12.810Z,92856.22
2023-05-06T00:53:39.945Z,92854.34
2023-05-06T00:56:06.486Z,92854.06
2023-05-06T00:58:34.127Z,92854.06
2023-05-06T01:01:01.693Z,92851.97
2023-05-06T01:03:28.405Z,92854.09
2023-05-06T01:06:11.236Z,92850.16
2023-05-06T01:08:46.913Z,92850.97
2023-05-06T01:11:24.169Z,92843.63
2023-05-06T01:13:59.134Z,92846.56
2023-05-06T01:16:30.791Z,92843.41
2023-05-06T01:19:00.236Z,92838.22
2023-05-06T01:21:34.528Z,92838.50
2023-05-06T01:24:01.719Z,92843.50
2023-05-06T01:26:28.172Z,92845.13
2023-05-06T01:28:54.856Z,92830.34
2023-05-06T01:31:25.828Z,92839.06
2023-05-06T01:34:14.106Z,92840.66
2023-05-06T01:36:55.431Z,92849.88
2023-05-06T01:39:26.347Z,92853.84
2023-05-06T01:41:57.314Z,92848.59
2023-05-06T01:44:24.862Z,92844.13
2023-05-06T01:46:53.759Z,92840.16
2023-05-06T01:49:22.036Z,92850.44
2023-05-06T01:51:53.813Z,92840.97
2023-05-06T01:54:20.377Z,92847.81
2023-05-06T01:56:47.008Z,92847.56
2023-05-06T01:59:14.848Z,92844.13
2023-05-06T02:01:41.364Z,92846.25
2023-05-06T02:04:07.838Z,92839.38
2023-05-06T02:06:34.343Z,92834.13
2023-05-06T02:09:01.038Z,92830.97
2023-05-06T02:11:28.755Z,92836.00
2023-05-06T02:14:02.057Z,92838.34
2023-05-06T02:16:30.788Z,92829.97
2023-05-06T02:18:57.353Z,92834.94
2023-05-06T02:21:23.844Z,92836.78
2023-05-06T02:23:50.620Z,92845.47
2023-05-06T02:26:17.403Z,92845.22
2023-05-06T02:28:43.827Z,92833.34
2023-05-06T02:31:16.115Z,92836.78
2023-05-06T02:33:43.394Z,92836.78
2023-05-06T02:36:11.203Z,92835.47
2023-05-06T02:38:37.655Z,92834.94
2023-05-06T02:41:04.111Z,92839.41
2023-05-06T02:43:30.562Z,92837.81
2023-05-06T02:45:58.174Z,92836.53
2023-05-06T02:48:25.562Z,92834.13
2023-05-06T02:50:52.033Z,92836.25
2023-05-06T02:53:18.478Z,92838.09
2023-05-06T02:55:44.920Z,92826.00
2023-05-06T02:58:11.310Z,92821.28
2023-05-06T03:00:37.724Z,92822.59
2023-05-06T03:03:04.289Z,92823.38
2023-05-06T03:05:30.773Z,92828.09
2023-05-06T03:07:57.543Z,92829.69
2023-05-06T03:10:24.049Z,92822.31
2023-05-06T03:12:51.107Z,92821.81
2023-05-06T03:15:17.866Z,92827.06
2023-05-06T03:17:46.506Z,92816.53
2023-05-06T03:20:13.771Z,92821.00
2023-05-06T03:22:45.684Z,92817.59
2023-05-06T03:25:12.320Z,92822.06
2023-05-06T03:27:40.733Z,92816.03
2023-05-06T03:30:15.381Z,92813.09
2023-05-06T03:32:42.761Z,92812.56
2023-05-06T03:35:12.924Z,92814.69
2023-05-06T03:37:42.365Z,92814.94
2023-05-06T03:40:09.399Z,92820.47
2023-05-06T03:42:35.942Z,92820.44
2023-05-06T03:45:03.136Z,92802.03
2023-05-06T03:47:32.192Z,92809.66
2023-05-06T03:49:59.249Z,92814.94
2023-05-06T03:52:26.009Z,92807.03
2023-05-06T03:54:52.802Z,92810.97
2023-05-06T03:57:19.250Z,92809.94
2023-05-06T03:59:45.705Z,92811.53
2023-05-06T04:02:12.228Z,92820.72
2023-05-06T04:04:38.780Z,92827.00
2023-05-06T04:07:05.214Z,92819.13
2023-05-06T04:09:32.968Z,92821.47
2023-05-06T04:12:03.294Z,92826.72
2023-05-06T04:14:30.612Z,92821.75
2023-05-06T04:16:57.566Z,92824.63
2023-05-06T04:19:24.033Z,92825.97
2023-05-06T04:21:50.523Z,92827.81
2023-05-06T04:24:18.511Z,92815.97
2023-05-06T04:26:45.734Z,92822.03
2023-05-06T04:29:12.707Z,92819.41
2023-05-06T04:31:55.609Z,92822.03
2023-05-06T04:34:25.024Z,92828.34
2023-05-06T04:36:54.180Z,92827.28
2023-05-06T04:39:28.718Z,92824.63
2023-05-06T04:41:56.633Z,92829.91
2023-05-06T04:44:30.884Z,92828.59
2023-05-06T04:46:57.715Z,92835.19
2023-05-06T04:49:24.220Z,92836.72
2023-05-06T04:51:51.655Z,92837.75
2023-05-06T04:54:18.961Z,92842.50
2023-05-06T04:56:45.877Z,92842.97
2023-05-06T04:59:14.537Z,92853.00
2023-05-06T05:01:42.710Z,92848.31
2023-05-06T05:04:10.753Z,92857.25
2023-05-06T05:06:37.509Z,92848.84
2023-05-06T05:09:04.344Z,92849.66
2023-05-06T05:11:31.626Z,92847.81
2023-05-06T05:14:00.920Z,92844.66
2023-05-06T05:16:28.988Z,92842.56
2023-05-06T05:18:55.684Z,92842.56
2023-05-06T05:21:27.606Z,92847.56
2023-05-06T05:23:55.171Z,92849.41
2023-05-06T05:26:21.763Z,92851.25
2023-05-06T05:28:50.734Z,92859.94
2023-05-06T05:31:17.240Z,92857.03
2023-05-06T05:33:43.799Z,92850.19
2023-05-06T05:36:15.366Z,92848.59
2023-05-06T05:38:43.309Z,92858.34
2023-05-06T05:41:10.237Z,92846.53
2023-05-06T05:43:36.918Z,92852.81
2023-05-06T05:46:03.655Z,92846.75
2023-05-06T05:48:32.787Z,92843.84
2023-05-06T05:51:02.272Z,92831.97
2023-05-06T05:53:29.122Z,92835.91
2023-05-06T05:55:55.721Z,92836.41
2023-05-06T05:58:22.253Z,92828.75
2023-05-06T06:00:49.063Z,92830.06
2023-05-06T06:03:18.721Z,92840.31
2023-05-06T06:05:45.215Z,92838.22
2023-05-06T06:08:12.823Z,92839.75
2023-05-06T06:10:39.883Z,92843.16
2023-05-06T06:13:13.306Z,92838.97
2023-05-06T06:15:40.557Z,92851.84
2023-05-06T06:18:08.890Z,92848.19
2023-05-06T06:20:36.809Z,92848.69
2023-05-06T06:23:03.271Z,92852.13
2023-05-06T06:25:29.735Z,92854.50
2023-05-06T06:27:56.277Z,92856.59
2023-05-06T06:30:23.883Z,92857.91
2023-05-06T06:32:52.763Z,92856.53
2023-05-06T06:35:20.152Z,92857.25
2023-05-06T06:37:47.395Z,92859.06
2023-05-06T06:40:14.056Z,92867.97
2023-05-06T06:42:40.648Z,92867.38
2023-05-06T06:45:18.912Z,92870.97
2023-05-06T06:47:45.690Z,92867.22
2023-05-06T06:50:12.418Z,92861.59
2023-05-06T06:52:38.941Z,92860.38
2023-05-06T06:55:05.786Z,92871.66
2023-05-06T06:57:32.332Z,92866.81
2023-05-06T06:59:58.754Z,92862.53
2023-05-06T07:02:25.170Z,92869.25
2023-05-06T07:04:52.078Z,92870.47
2023-05-06T07:07:18.521Z,92872.38
2023-05-06T07:09:44.956Z,92872.66
2023-05-06T07:12:12.017Z,92874.13
2023-05-06T07:14:38.434Z,92876.38
2023-05-06T07:17:04.983Z,92874.69
2023-05-06T07:19:31.611Z,92866.81
2023-05-06T07:21:58.182Z,92870.03
2023-05-06T07:24:24.744Z,92869.13
2023-05-06T07:26:51.145Z,92866.19
2023-05-06T07:29:17.658Z,92868.19
2023-05-06T07:31:44.135Z,92869.03
2023-05-06T07:34:11.017Z,92861.75
2023-05-06T07:36:40.768Z,92869.91
2023-05-06T07:39:07.874Z,92868.47
2023-05-06T07:41:34.490Z,92875.69
2023-05-06T07:44:01.373Z,92871.75
2023-05-06T07:46:28.015Z,92879.09
2023-05-06T07:48:54.506Z,92877.97
2023-05-06T07:51:21.705Z,92882.91
2023-05-06T07:53:48.119Z,92881.75
2023-05-06T07:56:14.672Z,92882.88
2023-05-06T07:58:41.131Z,92885.22
2023-05-06T08:01:07.656Z,92889.81
2023-05-06T08:03:35.121Z,92883.13
2023-05-06T08:06:01.916Z,92889.13
2023-05-06T08:08:28.408Z,92885.22
2023-05-06T08:10:58.920Z,92882.19
2023-05-06T08:13:26.132Z,92879.22
2023-05-06T08:15:52.989Z,92888.56
2023-05-06T08:18:22.931Z,92890.63
2023-05-06T08:20:50.146Z,92884.63
2023-05-06T08:23:16.718Z,92885.31
2023-05-06T08:25:43.204Z,92891.59
2023-05-06T08:28:09.629Z,92885.09
2023-05-06T08:30:36.608Z,92898.19
2023-05-06T08:33:03.246Z,92893.06
2023-05-06T08:35:29.740Z,92890.13
2023-05-06T08:37:56.149Z,92892.56
2023-05-06T08:40:23.879Z,92893.66
2023-05-06T08:42:50.801Z,92897.47
2023-05-06T08:45:17.915Z,92890.28
2023-05-06T08:47:44.924Z,92889.25
2023-05-06T08:50:12.508Z,92883.66
2023-05-06T08:52:39.684Z,92890.41
2023-05-06T08:55:07.383Z,92889.88
2023-05-06T08:57:36.884Z,92891.25
2023-05-06T09:00:04.844Z,92889.28
2023-05-06T09:02:31.431Z,92893.28
2023-05-06T09:04:58.099Z,92883.66
2023-05-06T09:07:24.593Z,92885.34
2023-05-06T09:09:51.658Z,92874.19
2023-05-06T09:12:18.509Z,92875.56
2023-05-06T09:14:46.574Z,92878.56
2023-05-06T09:17:28.151Z,92882.91
2023-05-06T09:19:57.008Z,92875.91
2023-05-06T09:22:24.689Z,92876.66
2023-05-06T09:24:57.516Z,92886.16
2023-05-06T09:27:29.078Z,92884.88
2023-05-06T09:30:06.225Z,92880.50
2023-05-06T09:32:33.504Z,92879.09
2023-05-06T09:35:00.947Z,92881.97
2023-05-06T09:37:28.207Z,92878.91
2023-05-06T09:39:56.681Z,92874.91
2023-05-06T09:42:25.322Z,92870.84
2023-05-06T09:44:53.952Z,92870.66
2023-05-06T09:47:27.859Z,92863.75
2023-05-06T09:50:00.747Z,92868.47
2023-05-06T09:52:28.488Z,92863.69
2023-05-06T09:54:55.707Z,92864.88
2023-05-06T09:57:22.825Z,92860.41
2023-05-06T09:59:51.989Z,92853.72
2023-05-06T10:02:19.670Z,92861.47
2023-05-06T10:04:48.969Z,92856.97
2023-05-06T10:07:19.686Z,92858.34
2023-05-06T10:09:48.824Z,92866.22
2023-05-06T10:12:16.386Z,92852.78
2023-05-06T10:14:42.876Z,92854.91
2023-05-06T10:17:11.494Z,92854.19
2023-05-06T10:19:44.776Z,92848.03
2023-05-06T10:22:33.985Z,92843.44
2023-05-06T10:25:37.628Z,92849.84
2023-05-06T10:28:07.280Z,92844.53
2023-05-06T10:30:40.538Z,92839.47
2023-05-06T10:33:09.458Z,92832.13
2023-05-06T10:35:47.145Z,92824.88
2023-05-06T10:38:26.661Z,92821.69
2023-05-06T10:40:54.572Z,92825.34
2023-05-06T10:43:34.100Z,92824.69
2023-05-06T10:46:18.797Z,92819.66
2023-05-06T10:49:08.484Z,92814.63
2023-05-06T10:51:39.180Z,92818.75
2023-05-06T10:54:20.588Z,92802.25
2023-05-06T10:56:50.013Z,92802.34
2023-05-06T10:59:25.785Z,92805.78
2023-05-06T11:01:57.076Z,92806.47
2023-05-06T11:04:23.639Z,92798.84
2023-05-06T11:06:53.012Z,92797.22
2023-05-06T11:09:24.591Z,92797.00
2023-05-06T11:12:05.305Z,92790.09
2023-05-06T11:14:37.793Z,92793.44
2023-05-06T11:17:06.785Z,92794.72
2023-05-06T11:19:34.243Z,92793.22
2023-05-06T11:22:02.393Z,92800.50
2023-05-06T11:24:37.966Z,92798.66
2023-05-06T11:27:05.537Z,92799.19
2023-05-06T11:29:32.260Z,92798.34
2023-05-06T11:31:59.159Z,92792.81
2023-05-06T11:34:28.691Z,92800.97
2023-05-06T11:37:02.341Z,92808.59
2023-05-06T11:39:31.152Z,92805.25
2023-05-06T11:42:07.872Z,92798.56
2023-05-06T11:44:36.749Z,92792.63
2023-05-06T11:47:07.948Z,92791.78
2023-05-06T11:49:43.692Z,92797.31
2023-05-06T11:52:10.639Z,92788.34
2023-05-06T11:54:41.792Z,92797.69
2023-05-06T11:57:09.232Z,92793.69
2023-05-06T11:59:37.776Z,92795.75
2023-05-06T12:02:06.732Z,92793.00
2023-05-06T12:04:48.139Z,92789.44
2023-05-06T12:07:16.156Z,92786.22
2023-05-06T12:09:45.738Z,92783.31
2023-05-06T12:12:14.641Z,92779.03
2023-05-06T12:14:41.678Z,92779.38
2023-05-06T12:17:08.388Z,92779.34
2023-05-06T12:19:36.506Z,92777.97
2023-05-06T12:22:22.091Z,92787.81
2023-05-06T12:24:48.996Z,92791.59
2023-05-06T12:27:29.269Z,92780.09
2023-05-06T12:29:56.534Z,92786.56
2023-05-06T12:32:23.032Z,92784.78
2023-05-06T12:34:49.501Z,92785.13
2023-05-06T12:37:27.416Z,92780.56
2023-05-06T12:39:55.682Z,92793.00
2023-05-06T12:42:24.237Z,92782.38
2023-05-06T12:44:50.857Z,92786.69
2023-05-06T12:47:22.793Z,92789.47
2023-05-06T12:49:53.652Z,92786.97
2023-05-06T12:52:22.110Z,92785.69
2023-05-06T12:54:49.457Z,92785.50
2023-05-06T12:57:16.476Z,92786.09
2023-05-06T12:59:45.298Z,92790.78
2023-05-06T13:02:12.463Z,92784.22
2023-05-06T13:04:39.342Z,92782.13
2023-05-06T13:07:06.136Z,92779.25
2023-05-06T13:09:33.159Z,92775.94
2023-05-06T13:11:59.682Z,92774.13
2023-05-06T13:14:26.448Z,92780.53
2023-05-06T13:16:53.218Z,92771.63
2023-05-06T13:19:31.678Z,92771.41
2023-05-06T13:22:00.282Z,92766.97
2023-05-06T13:24:27.040Z,92768.72
2023-05-06T13:26:53.479Z,92771.56
2023-05-06T13:29:19.953Z,92765.31
2023-05-06T13:31:46.412Z,92763.00
2023-05-06T13:34:12.872Z,92762.84
2023-05-06T13:36:39.362Z,92763.38
2023-05-06T13:39:05.897Z,92758.84
2023-05-06T13:41:32.784Z,92755.09
2023-05-06T13:43:59.323Z,92752.16
2023-05-06T13:46:27.182Z,92751.47
2023-05-06T13:48:53.677Z,92748.13
2023-05-06T13:51:20.173Z,92748.38
2023-05-06T13:53:46.606Z,92751.06
2023-05-06T13:56:13.087Z,92736.47
2023-05-06T13:58:39.515Z,92746.56
2023-05-06T14:01:06.072Z,92736.00
2023-05-06T14:03:32.527Z,92733.94
2023-05-06T14:05:59.046Z,92729.66
2023-05-06T14:08:25.661Z,92727.06
2023-05-06T14:10:52.084Z,92726.00
2023-05-06T14:13:18.530Z,92724.94
2023-05-06T14:15:45.066Z,92726.91
2023-05-06T14:18:11.760Z,92726.94
2023-05-06T14:20:39.064Z,92716.13
2023-05-06T14:23:06.903Z,92718.22
2023-05-06T14:25:33.408Z,92710.91
2023-05-06T14:28:00.193Z,92704.91
2023-05-06T14:30:26.697Z,92699.44
2023-05-06T14:32:53.139Z,92706.38
2023-05-06T14:35:19.789Z,92709.66
2023-05-06T14:37:46.385Z,92709.28
2023-05-06T14:40:13.193Z,92705.44
2023-05-06T14:42:40.748Z,92697.41
2023-05-06T14:45:08.036Z,92699.03
2023-05-06T14:47:34.611Z,92701.34
2023-05-06T14:50:01.079Z,92706.97
2023-05-06T14:52:27.599Z,92704.69
2023-05-06T14:54:54.010Z,92694.22
2023-05-06T14:57:20.649Z,92703.69
2023-05-06T14:59:47.246Z,92697.19
2023-05-06T15:02:13.799Z,92706.41
2023-05-06T15:04:40.300Z,92689.13
2023-05-06T15:07:06.722Z,92694.88
2023-05-06T15:09:33.157Z,92683.91
2023-05-06T15:12:00.403Z,92676.97
2023-05-06T15:14:26.836Z,92683.09
2023-05-06T15:16:57.174Z,92685.28
2023-05-06T15:19:24.037Z,92686.19
2023-05-06T15:21:50.961Z,92683.44
2023-05-06T15:24:17.452Z,92692.34
2023-05-06T15:26:44.008Z,92685.34
2023-05-06T15:29:10.484Z,92682.00
2023-05-06T15:31:39.412Z,92686.81
2023-05-06T15:34:07.091Z,92689.41
2023-05-06T15:36:33.615Z,92687.81
2023-05-06T15:39:01.044Z,92690.94
2023-05-06T15:41:29.384Z,92690.88
2023-05-06T15:44:00.303Z,92699.44
2023-05-06T15:46:28.347Z,92687.88
2023-05-06T15:49:15.637Z,92688.97
2023-05-06T15:51:41.966Z,92690.91
2023-05-06T15:54:08.844Z,92692.72
2023-05-06T15:56:40.586Z,92692.34
2023-05-06T15:59:08.228Z,92680.72
2023-05-06T16:02:00.698Z,92690.72
2023-05-06T16:04:21.485Z,92686.91
2023-05-06T16:06:48.176Z,92687.63
2023-05-06T16:09:14.741Z,92700.03
2023-05-06T16:11:41.161Z,92691.19
2023-05-06T16:14:07.606Z,92688.69
2023-05-06T16:16:34.065Z,92687.91
2023-05-06T16:19:00.579Z,92678.75
2023-05-06T16:21:27.181Z,92667.25
2023-05-06T16:23:53.650Z,92667.69
2023-05-06T16:26:20.151Z,92671.63
2023-05-06T16:28:46.578Z,92669.38
2023-05-06T16:31:13.035Z,92667.56
2023-05-06T16:33:39.493Z,92663.09
2023-05-06T16:36:06.398Z,92661.72
2023-05-06T16:38:32.902Z,92659.69
2023-05-06T16:40:59.331Z,92658.69
2023-05-06T16:43:25.913Z,92665.28
2023-05-06T16:45:52.329Z,92655.97
2023-05-06T16:48:18.929Z,92657.03
2023-05-06T16:50:46.195Z,92659.56
2023-05-06T16:53:12.713Z,92657.06
2023-05-06T16:55:39.163Z,92663.31
2023-05-06T16:58:05.676Z,92662.13
2023-05-06T17:00:32.292Z,92658.53
2023-05-06T17:02:58.962Z,92654.56
2023-05-06T17:05:27.979Z,92658.00
2023-05-06T17:07:54.422Z,92657.72
2023-05-06T17:10:21.942Z,92660.88
2023-05-06T17:12:48.404Z,92662.25
2023-05-06T17:15:15.043Z,92660.19
2023-05-06T17:17:41.593Z,92665.53
2023-05-06T17:20:08.707Z,92669.69
2023-05-06T17:22:35.746Z,92665.00
2023-05-06T17:25:03.369Z,92658.72
2023-05-06T17:27:30.228Z,92661.56
2023-05-06T17:29:56.647Z,92659.03
2023-05-06T17:32:23.074Z,92655.84
2023-05-06T17:34:49.587Z,92664.13
2023-05-06T17:37:16.188Z,92662.81
2023-05-06T17:39:42.642Z,92662.31
2023-05-06T17:42:09.673Z,92656.81
2023-05-06T17:44:37.994Z,92650.38
2023-05-06T17:47:04.442Z,92661.44
2023-05-06T17:49:31.141Z,92660.09
2023-05-06T17:51:59.284Z,92656.03
2023-05-06T17:54:26.719Z,92666.25
2023-05-06T17:56:53.171Z,92663.19
2023-05-06T17:59:20.943Z,92663.72
2023-05-06T18:01:47.708Z,92666.22
2023-05-06T18:04:14.352Z,92669.69
2023-05-06T18:06:42.285Z,92680.63
2023-05-06T18:09:10.255Z,92679.31
2023-05-06T18:11:38.646Z,92680.94
2023-05-06T18:14:05.913Z,92686.16
2023-05-06T18:16:32.434Z,92682.13
2023-05-06T18:19:00.838Z,92689.53
2023-05-06T18:21:27.775Z,92687.28
2023-05-06T18:23:58.796Z,92687.13
2023-05-06T18:26:44.047Z,92703.31
2023-05-06T18:29:12.258Z,92701.56
2023-05-06T18:31:38.752Z,92702.69
2023-05-06T18:34:05.236Z,92700.94
2023-05-06T18:36:32.074Z,92709.72
2023-05-06T18:38:58.556Z,92712.63
2023-05-06T18:41:25.027Z,92710.38
2023-05-06T18:43:51.436Z,92708.78
2023-05-06T18:46:17.927Z,92711.41
2023-05-06T18:48:44.884Z,92711.34
2023-05-06T18:51:17.005Z,92717.88
2023-05-06T18:53:44.048Z,92719.25
2023-05-06T18:56:10.785Z,92718.06
2023-05-06T18:58:38.873Z,92728.00
2023-05-06T19:01:07.103Z,92726.19
2023-05-06T19:03:34.836Z,92725.63
2023-05-06T19:06:03.186Z,92723.53
2023-05-06T19:08:30.840Z,92722.50
2023-05-06T19:10:59.539Z,92729.63
2023-05-06T19:13:26.541Z,92727.19
2023-05-06T19:15:53.436Z,92730.22
2023-05-06T19:18:19.910Z,92729.97
2023-05-06T19:20:46.512Z,92725.19
2023-05-06T19:23:13.165Z,92733.53
2023-05-06T19:25:39.793Z,92726.97
2023-05-06T19:28:06.522Z,92724.63
2023-05-06T19:30:34.538Z,92733.53
2023-05-06T19:33:02.072Z,92730.88
2023-05-06T19:35:28.553Z,92735.84
2023-05-06T19:37:56.068Z,92723.81
2023-05-06T19:40:22.724Z,92722.22
2023-05-06T19:42:49.439Z,92732.97
2023-05-06T19:45:17.517Z,92732.47
2023-05-06T19:47:45.726Z,92726.38
2023-05-06T19:50:12.786Z,92733.94
2023-05-06T19:52:39.870Z,92735.75
2023-05-06T19:55:06.872Z,92734.53
2023-05-06T19:57:33.872Z,92729.91
2023-05-06T20:00:05.135Z,92722.94
2023-05-06T20:02:32.793Z,92731.94
2023-05-06T20:05:00.345Z,92726.97
2023-05-06T20:07:27.259Z,92732.72
2023-05-06T20:09:55.457Z,92722.00
2023-05-06T20:12:23.054Z,92724.72
2023-05-06T20:14:49.685Z,92729.69
2023-05-06T20:17:16.588Z,92730.84
2023-05-06T20:19:43.097Z,92728.28
2023-05-06T20:22:09.556Z,92731.47
2023-05-06T20:24:37.072Z,92731.63
2023-05-06T20:27:03.661Z,92725.34
2023-05-06T20:29:30.111Z,92725.63
2023-05-06T20:31:56.570Z,92724.38
2023-05-06T20:34:22.968Z,92721.91
2023-05-06T20:36:49.877Z,92723.72
2023-05-06T20:39:16.514Z,92717.72
2023-05-06T20:41:42.952Z,92722.63
2023-05-06T20:44:09.453Z,92721.59
2023-05-06T20:46:36.066Z,92714.88
2023-05-06T20:49:02.512Z,92719.44
2023-05-06T20:51:28.998Z,92716.84
2023-05-06T20:53:56.519Z,92722.97
2023-05-06T20:56:27.324Z,92718.22
2023-05-06T20:58:55.424Z,92720.13
2023-05-06T21:01:23.575Z,92715.06
2023-05-06T21:03:50.252Z,92711.38
2023-05-06T21:06:17.783Z,92703.53
2023-05-06T21:08:45.626Z,92709.31
2023-05-06T21:11:12.653Z,92705.69
2023-05-06T21:13:39.824Z,92706.25
2023-05-06T21:16:06.219Z,92713.16
2023-05-06T21:18:32.726Z,92712.66
2023-05-06T21:20:59.716Z,92718.56
2023-05-06T21:23:26.473Z,92716.50
2023-05-06T21:25:53.025Z,92719.69
2023-05-06T21:28:19.450Z,92724.47
2023-05-06T21:30:46.027Z,92713.97
2023-05-06T21:33:12.631Z,92722.94
2023-05-06T21:35:39.068Z,92728.47
2023-05-06T21:38:05.505Z,92725.88
2023-05-06T21:40:31.939Z,92726.69
2023-05-06T21:42:58.418Z,92721.44
2023-05-06T21:45:24.922Z,92725.44
2023-05-06T21:47:51.427Z,92719.41
2023-05-06T21:50:17.933Z,92714.91
2023-05-06T21:52:44.363Z,92720.47
2023-05-06T21:55:11.221Z,92715.03
2023-05-06T21:57:38.679Z,92706.38
2023-05-06T22:00:12.112Z,92708.16
2023-05-06T22:02:40.011Z,92709.28
2023-05-06T22:05:08.258Z,92712.72
2023-05-06T22:07:35.748Z,92709.81
2023-05-06T22:10:02.510Z,92710.38
2023-05-06T22:12:29.037Z,92711.75
2023-05-06T22:14:55.876Z,92706.75
2023-05-06T22:17:22.489Z,92715.97
2023-05-06T22:19:48.993Z,92714.19
2023-05-06T22:22:16.251Z,92703.97
2023-05-06T22:24:42.881Z,92707.63
2023-05-06T22:27:09.300Z,92704.47
2023-05-06T22:29:35.952Z,92706.34
2023-05-06T22:32:02.570Z,92707.41
2023-05-06T22:34:29.121Z,92711.34
2023-05-06T22:36:57.592Z,92700.81
2023-05-06T22:39:24.771Z,92709.25
2023-05-06T22:41:52.257Z,92714.50
2023-05-06T22:44:18.669Z,92715.34
2023-05-06T22:46:45.185Z,92713.75
2023-05-06T22:49:11.602Z,92706.41
2023-05-06T22:51:38.033Z,92711.94
2023-05-06T22:54:04.535Z,92712.47
2023-05-06T22:56:31.085Z,92707.78
2023-05-06T22:58:57.518Z,92707.78
2023-05-06T23:01:26.062Z,92708.03
2023-05-06T23:03:52.805Z,92703.56
2023-05-06T23:06:19.294Z,92693.59
2023-05-06T23:08:45.763Z,92702.53
2023-05-06T23:11:12.181Z,92699.63
2023-05-06T23:13:38.600Z,92697.28
2023-05-06T23:16:07.619Z,92691.47
2023-05-06T23:18:34.083Z,92692.53
2023-05-06T23:21:00.514Z,92699.13
2023-05-06T23:23:26.926Z,92702.31
2023-05-06T23:25:53.353Z,92694.16
2023-05-06T23:28:20.654Z,92695.75
2023-05-06T23:30:47.220Z,92697.84
2023-05-06T23:33:14.204Z,92690.75
2023-05-06T23:35:40.909Z,92692.59
2023-05-06T23:38:07.488Z,92681.84
2023-05-06T23:40:33.956Z,92686.56
2023-05-06T23:43:00.487Z,92687.91
2023-05-06T23:45:27.065Z,92689.00
2023-05-06T23:47:53.965Z,92688.72
2023-05-06T23:50:20.563Z,92692.91
2023-05-06T23:52:47.084Z,92682.13
2023-05-06T23:55:13.668Z,92686.34
2023-05-06T23:57:40.336Z,92683.72
